sensor_id;sensor_type;location;lat;lon;timestamp;P1;durP1;ratioP1;P2;durP2;ratioP2
61785;SDS011;47692;53.714;11.372;2024-03-02T00:00:11;33.60;;;15.68;;
61785;SDS011;47692;53.714;11.372;2024-03-02T00:02:41;34.63;;;16.77;;
61785;SDS011;47692;53.714;11.372;2024-03-02T00:05:08;39.72;;;16.67;;
61785;SDS011;47692;53.714;11.372;2024-03-02T00:07:36;35.03;;;17.00;;
61785;SDS011;47692;53.714;11.372;2024-03-02T00:10:04;36.65;;;15.82;;
61785;SDS011;47692;53.714;11.372;2024-03-02T00:12:35;38.20;;;16.30;;
61785;SDS011;47692;53.714;11.372;2024-03-02T00:15:01;36.67;;;15.95;;
61785;SDS011;47692;53.714;11.372;2024-03-02T00:17:29;39.63;;;17.38;;
61785;SDS011;47692;53.714;11.372;2024-03-02T00:19:54;33.83;;;16.30;;
61785;SDS011;47692;53.714;11.372;2024-03-02T00:22:20;37.75;;;16.60;;
61785;SDS011;47692;53.714;11.372;2024-03-02T00:24:45;37.08;;;17.85;;
61785;SDS011;47692;53.714;11.372;2024-03-02T00:27:12;33.83;;;16.25;;
61785;SDS011;47692;53.714;11.372;2024-03-02T00:29:40;37.17;;;17.50;;
61785;SDS011;47692;53.714;11.372;2024-03-02T00:32:12;37.20;;;16.80;;
61785;SDS011;47692;53.714;11.372;2024-03-02T00:34:39;34.15;;;16.13;;
61785;SDS011;47692;53.714;11.372;2024-03-02T00:37:04;42.10;;;16.38;;
61785;SDS011;47692;53.714;11.372;2024-03-02T00:39:30;33.00;;;15.68;;
61785;SDS011;47692;53.714;11.372;2024-03-02T00:41:56;38.88;;;17.40;;
61785;SDS011;47692;53.714;11.372;2024-03-02T00:44:21;33.80;;;15.90;;
61785;SDS011;47692;53.714;11.372;2024-03-02T00:46:51;35.17;;;15.63;;
61785;SDS011;47692;53.714;11.372;2024-03-02T00:49:22;34.67;;;16.15;;
61785;SDS011;47692;53.714;11.372;2024-03-02T00:51:49;37.28;;;17.75;;
61785;SDS011;47692;53.714;11.372;2024-03-02T00:54:19;38.47;;;17.42;;
61785;SDS011;47692;53.714;11.372;2024-03-02T00:56:45;42.90;;;18.15;;
61785;SDS011;47692;53.714;11.372;2024-03-02T00:59:12;37.33;;;17.58;;
61785;SDS011;47692;53.714;11.372;2024-03-02T01:01:37;46.38;;;19.20;;
61785;SDS011;47692;53.714;11.372;2024-03-02T01:04:03;37.28;;;16.58;;
61785;SDS011;47692;53.714;11.372;2024-03-02T01:06:28;35.80;;;18.08;;
61785;SDS011;47692;53.714;11.372;2024-03-02T01:08:54;39.13;;;17.70;;
61785;SDS011;47692;53.714;11.372;2024-03-02T01:11:19;42.00;;;18.33;;
61785;SDS011;47692;53.714;11.372;2024-03-02T01:13:46;36.75;;;17.67;;
61785;SDS011;47692;53.714;11.372;2024-03-02T01:16:12;36.15;;;16.08;;
61785;SDS011;47692;53.714;11.372;2024-03-02T01:18:38;37.67;;;16.70;;
61785;SDS011;47692;53.714;11.372;2024-03-02T01:21:03;34.60;;;17.08;;
61785;SDS011;47692;53.714;11.372;2024-03-02T01:23:28;36.33;;;16.90;;
61785;SDS011;47692;53.714;11.372;2024-03-02T01:25:54;38.25;;;17.60;;
61785;SDS011;47692;53.714;11.372;2024-03-02T01:28:20;35.53;;;16.30;;
61785;SDS011;47692;53.714;11.372;2024-03-02T01:30:45;41.50;;;18.73;;
61785;SDS011;47692;53.714;11.372;2024-03-02T01:33:11;38.40;;;16.88;;
61785;SDS011;47692;53.714;11.372;2024-03-02T01:35:36;38.72;;;17.08;;
61785;SDS011;47692;53.714;11.372;2024-03-02T01:38:02;39.03;;;18.23;;
61785;SDS011;47692;53.714;11.372;2024-03-02T01:40:28;42.65;;;19.55;;
61785;SDS011;47692;53.714;11.372;2024-03-02T01:42:54;39.67;;;17.83;;
61785;SDS011;47692;53.714;11.372;2024-03-02T01:45:20;44.47;;;19.02;;
61785;SDS011;47692;53.714;11.372;2024-03-02T01:47:46;43.78;;;18.60;;
61785;SDS011;47692;53.714;11.372;2024-03-02T01:50:12;42.58;;;18.40;;
61785;SDS011;47692;53.714;11.372;2024-03-02T01:52:38;41.45;;;19.42;;
61785;SDS011;47692;53.714;11.372;2024-03-02T01:55:04;49.53;;;20.70;;
61785;SDS011;47692;53.714;11.372;2024-03-02T01:57:31;44.28;;;19.25;;
61785;SDS011;47692;53.714;11.372;2024-03-02T01:59:56;42.13;;;19.63;;
61785;SDS011;47692;53.714;11.372;2024-03-02T02:02:22;43.65;;;18.95;;
61785;SDS011;47692;53.714;11.372;2024-03-02T02:04:48;48.40;;;20.33;;
61785;SDS011;47692;53.714;11.372;2024-03-02T02:07:13;45.10;;;18.95;;
61785;SDS011;47692;53.714;11.372;2024-03-02T02:09:40;46.05;;;20.40;;
61785;SDS011;47692;53.714;11.372;2024-03-02T02:12:07;48.35;;;19.70;;
61785;SDS011;47692;53.714;11.372;2024-03-02T02:14:32;38.55;;;18.63;;
61785;SDS011;47692;53.714;11.372;2024-03-02T02:16:58;49.30;;;21.60;;
61785;SDS011;47692;53.714;11.372;2024-03-02T02:19:24;41.95;;;18.65;;
61785;SDS011;47692;53.714;11.372;2024-03-02T02:21:49;50.55;;;20.52;;
61785;SDS011;47692;53.714;11.372;2024-03-02T02:24:14;44.38;;;19.30;;
61785;SDS011;47692;53.714;11.372;2024-03-02T02:26:40;38.88;;;18.02;;
61785;SDS011;47692;53.714;11.372;2024-03-02T02:29:05;47.22;;;19.95;;
61785;SDS011;47692;53.714;11.372;2024-03-02T02:31:40;46.60;;;19.02;;
61785;SDS011;47692;53.714;11.372;2024-03-02T02:34:06;41.78;;;19.10;;
61785;SDS011;47692;53.714;11.372;2024-03-02T02:36:32;45.40;;;20.08;;
61785;SDS011;47692;53.714;11.372;2024-03-02T02:38:59;49.15;;;21.13;;
61785;SDS011;47692;53.714;11.372;2024-03-02T02:41:28;46.92;;;20.58;;
61785;SDS011;47692;53.714;11.372;2024-03-02T02:43:54;46.38;;;19.50;;
61785;SDS011;47692;53.714;11.372;2024-03-02T02:46:19;48.10;;;20.58;;
61785;SDS011;47692;53.714;11.372;2024-03-02T02:48:45;41.58;;;18.23;;
61785;SDS011;47692;53.714;11.372;2024-03-02T02:51:10;52.20;;;21.92;;
61785;SDS011;47692;53.714;11.372;2024-03-02T02:53:35;49.05;;;21.15;;
61785;SDS011;47692;53.714;11.372;2024-03-02T02:56:05;44.20;;;18.98;;
61785;SDS011;47692;53.714;11.372;2024-03-02T02:58:31;47.28;;;21.42;;
61785;SDS011;47692;53.714;11.372;2024-03-02T03:00:56;48.97;;;19.58;;
61785;SDS011;47692;53.714;11.372;2024-03-02T03:03:21;47.00;;;20.65;;
61785;SDS011;47692;53.714;11.372;2024-03-02T03:05:47;46.47;;;20.40;;
61785;SDS011;47692;53.714;11.372;2024-03-02T03:08:13;46.20;;;19.65;;
61785;SDS011;47692;53.714;11.372;2024-03-02T03:10:38;40.35;;;18.77;;
61785;SDS011;47692;53.714;11.372;2024-03-02T03:13:04;45.70;;;19.88;;
61785;SDS011;47692;53.714;11.372;2024-03-02T03:15:29;44.75;;;21.00;;
61785;SDS011;47692;53.714;11.372;2024-03-02T03:17:54;47.25;;;20.45;;
61785;SDS011;47692;53.714;11.372;2024-03-02T03:20:20;46.97;;;19.77;;
61785;SDS011;47692;53.714;11.372;2024-03-02T03:22:46;46.40;;;22.05;;
61785;SDS011;47692;53.714;11.372;2024-03-02T03:25:11;50.83;;;20.80;;
61785;SDS011;47692;53.714;11.372;2024-03-02T03:27:37;49.28;;;19.27;;
61785;SDS011;47692;53.714;11.372;2024-03-02T03:30:02;46.83;;;20.27;;
61785;SDS011;47692;53.714;11.372;2024-03-02T03:32:28;48.05;;;21.15;;
61785;SDS011;47692;53.714;11.372;2024-03-02T03:34:53;48.63;;;20.20;;
61785;SDS011;47692;53.714;11.372;2024-03-02T03:37:19;47.25;;;20.25;;
61785;SDS011;47692;53.714;11.372;2024-03-02T03:39:44;52.72;;;21.35;;
61785;SDS011;47692;53.714;11.372;2024-03-02T03:42:09;49.33;;;20.23;;
61785;SDS011;47692;53.714;11.372;2024-03-02T03:44:35;47.47;;;19.48;;
61785;SDS011;47692;53.714;11.372;2024-03-02T03:47:00;49.25;;;19.80;;
61785;SDS011;47692;53.714;11.372;2024-03-02T03:49:27;47.85;;;20.60;;
61785;SDS011;47692;53.714;11.372;2024-03-02T03:51:52;49.35;;;20.67;;
61785;SDS011;47692;53.714;11.372;2024-03-02T03:54:18;46.95;;;20.88;;
61785;SDS011;47692;53.714;11.372;2024-03-02T03:56:43;51.80;;;21.15;;
61785;SDS011;47692;53.714;11.372;2024-03-02T03:59:08;48.15;;;21.00;;
61785;SDS011;47692;53.714;11.372;2024-03-02T04:01:34;48.67;;;20.27;;
61785;SDS011;47692;53.714;11.372;2024-03-02T04:03:59;50.75;;;20.83;;
61785;SDS011;47692;53.714;11.372;2024-03-02T04:06:24;43.83;;;19.88;;
61785;SDS011;47692;53.714;11.372;2024-03-02T04:08:50;50.13;;;21.33;;
61785;SDS011;47692;53.714;11.372;2024-03-02T04:11:15;46.15;;;19.35;;
61785;SDS011;47692;53.714;11.372;2024-03-02T04:13:41;43.50;;;19.38;;
61785;SDS011;47692;53.714;11.372;2024-03-02T04:16:06;50.47;;;19.98;;
61785;SDS011;47692;53.714;11.372;2024-03-02T04:18:31;43.72;;;18.50;;
61785;SDS011;47692;53.714;11.372;2024-03-02T04:20:57;48.83;;;20.85;;
61785;SDS011;47692;53.714;11.372;2024-03-02T04:23:24;45.78;;;19.95;;
61785;SDS011;47692;53.714;11.372;2024-03-02T04:25:50;46.55;;;20.13;;
61785;SDS011;47692;53.714;11.372;2024-03-02T04:28:15;41.95;;;18.35;;
61785;SDS011;47692;53.714;11.372;2024-03-02T04:30:40;46.90;;;20.05;;
61785;SDS011;47692;53.714;11.372;2024-03-02T04:33:06;46.58;;;19.52;;
61785;SDS011;47692;53.714;11.372;2024-03-02T04:35:34;43.47;;;19.10;;
61785;SDS011;47692;53.714;11.372;2024-03-02T04:38:00;47.45;;;19.55;;
61785;SDS011;47692;53.714;11.372;2024-03-02T04:40:25;41.30;;;19.00;;
61785;SDS011;47692;53.714;11.372;2024-03-02T04:42:50;44.10;;;19.02;;
61785;SDS011;47692;53.714;11.372;2024-03-02T04:45:16;37.88;;;17.52;;
61785;SDS011;47692;53.714;11.372;2024-03-02T04:47:42;38.75;;;17.95;;
61785;SDS011;47692;53.714;11.372;2024-03-02T04:50:07;45.75;;;19.70;;
61785;SDS011;47692;53.714;11.372;2024-03-02T04:52:33;43.75;;;18.90;;
61785;SDS011;47692;53.714;11.372;2024-03-02T04:54:58;52.03;;;19.45;;
61785;SDS011;47692;53.714;11.372;2024-03-02T04:57:43;47.88;;;18.75;;
61785;SDS011;47692;53.714;11.372;2024-03-02T05:00:09;43.33;;;18.55;;
61785;SDS011;47692;53.714;11.372;2024-03-02T05:02:35;46.17;;;19.80;;
61785;SDS011;47692;53.714;11.372;2024-03-02T05:05:01;48.38;;;19.58;;
61785;SDS011;47692;53.714;11.372;2024-03-02T05:07:27;46.17;;;20.50;;
61785;SDS011;47692;53.714;11.372;2024-03-02T05:09:52;47.90;;;20.45;;
61785;SDS011;47692;53.714;11.372;2024-03-02T05:12:18;43.55;;;19.48;;
61785;SDS011;47692;53.714;11.372;2024-03-02T05:15:02;45.08;;;19.80;;
61785;SDS011;47692;53.714;11.372;2024-03-02T05:17:27;45.22;;;19.35;;
61785;SDS011;47692;53.714;11.372;2024-03-02T05:19:53;48.65;;;20.45;;
61785;SDS011;47692;53.714;11.372;2024-03-02T05:22:18;47.85;;;20.27;;
61785;SDS011;47692;53.714;11.372;2024-03-02T05:24:43;44.08;;;19.15;;
61785;SDS011;47692;53.714;11.372;2024-03-02T05:27:09;46.70;;;20.20;;
61785;SDS011;47692;53.714;11.372;2024-03-02T05:29:34;53.17;;;20.23;;
61785;SDS011;47692;53.714;11.372;2024-03-02T05:31:59;46.42;;;20.25;;
61785;SDS011;47692;53.714;11.372;2024-03-02T05:34:25;47.55;;;20.83;;
61785;SDS011;47692;53.714;11.372;2024-03-02T05:36:50;46.75;;;21.83;;
61785;SDS011;47692;53.714;11.372;2024-03-02T05:39:15;45.63;;;20.48;;
61785;SDS011;47692;53.714;11.372;2024-03-02T05:41:41;45.00;;;20.75;;
61785;SDS011;47692;53.714;11.372;2024-03-02T05:44:06;46.28;;;20.60;;
61785;SDS011;47692;53.714;11.372;2024-03-02T05:46:31;44.90;;;19.65;;
61785;SDS011;47692;53.714;11.372;2024-03-02T05:48:57;49.22;;;20.80;;
61785;SDS011;47692;53.714;11.372;2024-03-02T05:51:23;50.80;;;21.35;;
61785;SDS011;47692;53.714;11.372;2024-03-02T05:53:48;46.85;;;21.23;;
61785;SDS011;47692;53.714;11.372;2024-03-02T05:56:13;46.10;;;20.17;;
61785;SDS011;47692;53.714;11.372;2024-03-02T05:58:40;48.88;;;20.17;;
61785;SDS011;47692;53.714;11.372;2024-03-02T06:01:24;45.75;;;20.75;;
61785;SDS011;47692;53.714;11.372;2024-03-02T06:03:54;45.92;;;20.30;;
61785;SDS011;47692;53.714;11.372;2024-03-02T06:06:20;48.15;;;21.27;;
61785;SDS011;47692;53.714;11.372;2024-03-02T06:08:46;49.67;;;21.58;;
61785;SDS011;47692;53.714;11.372;2024-03-02T06:11:11;46.63;;;20.00;;
61785;SDS011;47692;53.714;11.372;2024-03-02T06:13:36;49.90;;;21.20;;
61785;SDS011;47692;53.714;11.372;2024-03-02T06:16:02;51.30;;;21.58;;
61785;SDS011;47692;53.714;11.372;2024-03-02T06:18:27;49.05;;;20.13;;
61785;SDS011;47692;53.714;11.372;2024-03-02T06:20:53;47.28;;;20.42;;
61785;SDS011;47692;53.714;11.372;2024-03-02T06:23:18;46.30;;;19.90;;
61785;SDS011;47692;53.714;11.372;2024-03-02T06:25:43;47.90;;;20.98;;
61785;SDS011;47692;53.714;11.372;2024-03-02T06:28:09;53.55;;;20.23;;
61785;SDS011;47692;53.714;11.372;2024-03-02T06:30:34;49.22;;;20.95;;
61785;SDS011;47692;53.714;11.372;2024-03-02T06:33:00;51.50;;;21.92;;
61785;SDS011;47692;53.714;11.372;2024-03-02T06:35:25;56.88;;;21.30;;
61785;SDS011;47692;53.714;11.372;2024-03-02T06:37:51;47.17;;;20.52;;
61785;SDS011;47692;53.714;11.372;2024-03-02T06:40:16;48.35;;;20.50;;
61785;SDS011;47692;53.714;11.372;2024-03-02T06:42:41;46.65;;;20.42;;
61785;SDS011;47692;53.714;11.372;2024-03-02T06:45:07;47.88;;;19.80;;
61785;SDS011;47692;53.714;11.372;2024-03-02T06:47:33;49.25;;;20.95;;
61785;SDS011;47692;53.714;11.372;2024-03-02T06:49:58;49.95;;;20.83;;
61785;SDS011;47692;53.714;11.372;2024-03-02T06:52:23;49.47;;;21.05;;
61785;SDS011;47692;53.714;11.372;2024-03-02T06:54:49;44.75;;;20.80;;
61785;SDS011;47692;53.714;11.372;2024-03-02T06:57:14;47.22;;;20.38;;
61785;SDS011;47692;53.714;11.372;2024-03-02T06:59:41;51.13;;;22.30;;
61785;SDS011;47692;53.714;11.372;2024-03-02T07:02:07;52.65;;;21.05;;
61785;SDS011;47692;53.714;11.372;2024-03-02T07:04:33;51.80;;;20.67;;
61785;SDS011;47692;53.714;11.372;2024-03-02T07:06:59;50.75;;;21.48;;
61785;SDS011;47692;53.714;11.372;2024-03-02T07:09:24;50.17;;;21.45;;
61785;SDS011;47692;53.714;11.372;2024-03-02T07:11:50;48.10;;;21.38;;
61785;SDS011;47692;53.714;11.372;2024-03-02T07:14:16;50.45;;;20.42;;
61785;SDS011;47692;53.714;11.372;2024-03-02T07:16:41;55.30;;;22.70;;
61785;SDS011;47692;53.714;11.372;2024-03-02T07:19:08;53.75;;;23.08;;
61785;SDS011;47692;53.714;11.372;2024-03-02T07:21:33;51.00;;;22.52;;
61785;SDS011;47692;53.714;11.372;2024-03-02T07:23:59;54.42;;;22.63;;
61785;SDS011;47692;53.714;11.372;2024-03-02T07:26:24;49.33;;;21.58;;
61785;SDS011;47692;53.714;11.372;2024-03-02T07:28:50;54.25;;;22.98;;
61785;SDS011;47692;53.714;11.372;2024-03-02T07:31:16;49.05;;;21.15;;
61785;SDS011;47692;53.714;11.372;2024-03-02T07:33:45;50.03;;;22.63;;
61785;SDS011;47692;53.714;11.372;2024-03-02T07:36:11;54.83;;;22.92;;
61785;SDS011;47692;53.714;11.372;2024-03-02T07:38:37;55.85;;;23.83;;
61785;SDS011;47692;53.714;11.372;2024-03-02T07:41:03;53.55;;;22.95;;
61785;SDS011;47692;53.714;11.372;2024-03-02T07:43:29;57.25;;;23.13;;
61785;SDS011;47692;53.714;11.372;2024-03-02T07:45:56;55.28;;;23.33;;
61785;SDS011;47692;53.714;11.372;2024-03-02T07:48:22;50.58;;;22.38;;
61785;SDS011;47692;53.714;11.372;2024-03-02T07:50:47;60.00;;;24.25;;
61785;SDS011;47692;53.714;11.372;2024-03-02T07:53:12;56.53;;;23.40;;
61785;SDS011;47692;53.714;11.372;2024-03-02T07:55:39;57.70;;;23.55;;
61785;SDS011;47692;53.714;11.372;2024-03-02T07:58:05;56.17;;;24.30;;
61785;SDS011;47692;53.714;11.372;2024-03-02T08:00:31;61.90;;;23.67;;
61785;SDS011;47692;53.714;11.372;2024-03-02T08:02:56;58.58;;;24.02;;
61785;SDS011;47692;53.714;11.372;2024-03-02T08:05:22;56.53;;;24.55;;
61785;SDS011;47692;53.714;11.372;2024-03-02T08:07:47;60.70;;;25.23;;
61785;SDS011;47692;53.714;11.372;2024-03-02T08:10:13;56.17;;;24.70;;
61785;SDS011;47692;53.714;11.372;2024-03-02T08:12:39;60.15;;;24.05;;
61785;SDS011;47692;53.714;11.372;2024-03-02T08:15:04;54.58;;;24.40;;
61785;SDS011;47692;53.714;11.372;2024-03-02T08:17:30;61.22;;;23.58;;
61785;SDS011;47692;53.714;11.372;2024-03-02T08:19:56;61.55;;;23.98;;
61785;SDS011;47692;53.714;11.372;2024-03-02T08:22:21;56.33;;;23.35;;
61785;SDS011;47692;53.714;11.372;2024-03-02T08:24:47;63.92;;;25.08;;
61785;SDS011;47692;53.714;11.372;2024-03-02T08:27:13;56.97;;;24.05;;
61785;SDS011;47692;53.714;11.372;2024-03-02T08:29:38;50.50;;;22.92;;
61785;SDS011;47692;53.714;11.372;2024-03-02T08:32:04;60.08;;;25.42;;
61785;SDS011;47692;53.714;11.372;2024-03-02T08:34:30;56.97;;;25.05;;
61785;SDS011;47692;53.714;11.372;2024-03-02T08:36:56;62.72;;;25.35;;
61785;SDS011;47692;53.714;11.372;2024-03-02T08:39:21;54.90;;;23.95;;
61785;SDS011;47692;53.714;11.372;2024-03-02T08:41:47;60.28;;;25.65;;
61785;SDS011;47692;53.714;11.372;2024-03-02T08:44:12;59.80;;;24.90;;
61785;SDS011;47692;53.714;11.372;2024-03-02T08:46:38;62.55;;;25.67;;
61785;SDS011;47692;53.714;11.372;2024-03-02T08:49:04;60.25;;;25.52;;
61785;SDS011;47692;53.714;11.372;2024-03-02T08:51:30;67.78;;;27.13;;
61785;SDS011;47692;53.714;11.372;2024-03-02T08:53:56;63.50;;;25.20;;
61785;SDS011;47692;53.714;11.372;2024-03-02T08:56:21;63.70;;;26.48;;
61785;SDS011;47692;53.714;11.372;2024-03-02T08:58:48;60.47;;;25.50;;
61785;SDS011;47692;53.714;11.372;2024-03-02T09:01:14;66.68;;;27.50;;
61785;SDS011;47692;53.714;11.372;2024-03-02T09:03:40;61.95;;;26.38;;
61785;SDS011;47692;53.714;11.372;2024-03-02T09:06:06;66.45;;;27.55;;
61785;SDS011;47692;53.714;11.372;2024-03-02T09:08:31;63.15;;;26.58;;
61785;SDS011;47692;53.714;11.372;2024-03-02T09:10:57;66.07;;;27.58;;
61785;SDS011;47692;53.714;11.372;2024-03-02T09:13:22;63.83;;;28.00;;
61785;SDS011;47692;53.714;11.372;2024-03-02T09:15:47;65.35;;;26.70;;
61785;SDS011;47692;53.714;11.372;2024-03-02T09:18:13;62.92;;;26.70;;
61785;SDS011;47692;53.714;11.372;2024-03-02T09:20:38;71.63;;;29.17;;
61785;SDS011;47692;53.714;11.372;2024-03-02T09:23:04;60.38;;;25.02;;
61785;SDS011;47692;53.714;11.372;2024-03-02T09:25:29;63.97;;;27.20;;
61785;SDS011;47692;53.714;11.372;2024-03-02T09:27:54;57.45;;;25.85;;
61785;SDS011;47692;53.714;11.372;2024-03-02T09:30:20;58.20;;;26.00;;
61785;SDS011;47692;53.714;11.372;2024-03-02T09:32:45;62.55;;;25.92;;
61785;SDS011;47692;53.714;11.372;2024-03-02T09:35:10;69.22;;;26.15;;
61785;SDS011;47692;53.714;11.372;2024-03-02T09:37:37;56.72;;;25.75;;
61785;SDS011;47692;53.714;11.372;2024-03-02T09:40:02;61.90;;;26.75;;
61785;SDS011;47692;53.714;11.372;2024-03-02T09:42:28;68.30;;;29.77;;
61785;SDS011;47692;53.714;11.372;2024-03-02T09:44:54;59.28;;;24.23;;
61785;SDS011;47692;53.714;11.372;2024-03-02T09:47:20;55.35;;;24.27;;
61785;SDS011;47692;53.714;11.372;2024-03-02T09:49:45;55.75;;;23.52;;
61785;SDS011;47692;53.714;11.372;2024-03-02T09:52:11;51.10;;;23.80;;
61785;SDS011;47692;53.714;11.372;2024-03-02T09:54:38;49.88;;;22.40;;
61785;SDS011;47692;53.714;11.372;2024-03-02T09:57:03;54.72;;;25.17;;
61785;SDS011;47692;53.714;11.372;2024-03-02T09:59:29;50.55;;;22.35;;
61785;SDS011;47692;53.714;11.372;2024-03-02T10:04:27;53.53;;;22.42;;
61785;SDS011;47692;53.714;11.372;2024-03-02T10:09:34;50.92;;;22.50;;
61785;SDS011;47692;53.714;11.372;2024-03-02T10:12:06;45.10;;;21.73;;
61785;SDS011;47692;53.714;11.372;2024-03-02T10:14:36;48.13;;;21.17;;
61785;SDS011;47692;53.714;11.372;2024-03-02T10:17:03;43.55;;;20.75;;
61785;SDS011;47692;53.714;11.372;2024-03-02T10:19:29;48.30;;;20.27;;
61785;SDS011;47692;53.714;11.372;2024-03-02T10:21:59;39.30;;;19.50;;
61785;SDS011;47692;53.714;11.372;2024-03-02T10:27:14;42.30;;;18.60;;
61785;SDS011;47692;53.714;11.372;2024-03-02T10:29:41;48.90;;;24.55;;
61785;SDS011;47692;53.714;11.372;2024-03-02T10:32:10;46.38;;;21.42;;
61785;SDS011;47692;53.714;11.372;2024-03-02T10:34:36;46.40;;;20.48;;
61785;SDS011;47692;53.714;11.372;2024-03-02T10:37:04;43.42;;;19.92;;
61785;SDS011;47692;53.714;11.372;2024-03-02T10:39:31;46.28;;;19.92;;
61785;SDS011;47692;53.714;11.372;2024-03-02T10:41:56;40.80;;;19.75;;
61785;SDS011;47692;53.714;11.372;2024-03-02T10:44:23;42.42;;;19.60;;
61785;SDS011;47692;53.714;11.372;2024-03-02T10:46:50;40.38;;;18.55;;
61785;SDS011;47692;53.714;11.372;2024-03-02T10:49:20;41.83;;;19.98;;
61785;SDS011;47692;53.714;11.372;2024-03-02T10:51:51;38.38;;;18.58;;
61785;SDS011;47692;53.714;11.372;2024-03-02T10:54:16;42.30;;;19.20;;
61785;SDS011;47692;53.714;11.372;2024-03-02T10:56:44;41.67;;;19.08;;
61785;SDS011;47692;53.714;11.372;2024-03-02T11:02:01;38.03;;;18.02;;
61785;SDS011;47692;53.714;11.372;2024-03-02T11:04:28;39.53;;;19.13;;
61785;SDS011;47692;53.714;11.372;2024-03-02T11:07:08;46.25;;;18.35;;
61785;SDS011;47692;53.714;11.372;2024-03-02T11:09:37;38.20;;;17.48;;
61785;SDS011;47692;53.714;11.372;2024-03-02T11:15:14;39.05;;;18.60;;
61785;SDS011;47692;53.714;11.372;2024-03-02T11:17:46;40.78;;;17.63;;
61785;SDS011;47692;53.714;11.372;2024-03-02T11:20:12;38.50;;;18.42;;
61785;SDS011;47692;53.714;11.372;2024-03-02T11:22:39;33.58;;;17.42;;
61785;SDS011;47692;53.714;11.372;2024-03-02T11:25:05;33.95;;;17.75;;
61785;SDS011;47692;53.714;11.372;2024-03-02T11:33:01;34.20;;;17.50;;
61785;SDS011;47692;53.714;11.372;2024-03-02T11:35:34;37.53;;;17.55;;
61785;SDS011;47692;53.714;11.372;2024-03-02T11:38:01;36.05;;;17.38;;
61785;SDS011;47692;53.714;11.372;2024-03-02T11:40:28;38.60;;;18.50;;
61785;SDS011;47692;53.714;11.372;2024-03-02T11:42:54;36.17;;;18.48;;
61785;SDS011;47692;53.714;11.372;2024-03-02T11:45:26;32.47;;;16.38;;
61785;SDS011;47692;53.714;11.372;2024-03-02T11:47:56;35.42;;;17.27;;
61785;SDS011;47692;53.714;11.372;2024-03-02T11:50:29;33.83;;;16.45;;
61785;SDS011;47692;53.714;11.372;2024-03-02T11:52:55;33.78;;;16.05;;
61785;SDS011;47692;53.714;11.372;2024-03-02T11:55:23;35.50;;;16.48;;
61785;SDS011;47692;53.714;11.372;2024-03-02T11:57:50;30.08;;;14.32;;
61785;SDS011;47692;53.714;11.372;2024-03-02T12:00:17;31.95;;;14.60;;
61785;SDS011;47692;53.714;11.372;2024-03-02T12:02:43;32.33;;;15.15;;
61785;SDS011;47692;53.714;11.372;2024-03-02T12:05:14;27.08;;;14.77;;
61785;SDS011;47692;53.714;11.372;2024-03-02T12:07:40;33.10;;;16.45;;
61785;SDS011;47692;53.714;11.372;2024-03-02T12:10:05;31.48;;;16.23;;
61785;SDS011;47692;53.714;11.372;2024-03-02T12:12:31;28.05;;;13.93;;
61785;SDS011;47692;53.714;11.372;2024-03-02T12:14:56;28.92;;;12.88;;
61785;SDS011;47692;53.714;11.372;2024-03-02T12:17:22;26.95;;;13.65;;
61785;SDS011;47692;53.714;11.372;2024-03-02T12:19:48;27.20;;;13.07;;
61785;SDS011;47692;53.714;11.372;2024-03-02T12:22:13;28.70;;;14.13;;
61785;SDS011;47692;53.714;11.372;2024-03-02T12:24:40;29.13;;;12.80;;
61785;SDS011;47692;53.714;11.372;2024-03-02T12:27:06;26.50;;;13.30;;
61785;SDS011;47692;53.714;11.372;2024-03-02T12:29:32;26.02;;;12.73;;
61785;SDS011;47692;53.714;11.372;2024-03-02T12:31:57;23.13;;;12.43;;
61785;SDS011;47692;53.714;11.372;2024-03-02T12:34:23;23.85;;;11.73;;
61785;SDS011;47692;53.714;11.372;2024-03-02T12:36:48;22.08;;;11.70;;
61785;SDS011;47692;53.714;11.372;2024-03-02T12:39:17;22.13;;;11.30;;
61785;SDS011;47692;53.714;11.372;2024-03-02T12:41:43;30.80;;;15.57;;
61785;SDS011;47692;53.714;11.372;2024-03-02T12:44:08;25.80;;;12.43;;
61785;SDS011;47692;53.714;11.372;2024-03-02T12:46:34;26.48;;;12.82;;
61785;SDS011;47692;53.714;11.372;2024-03-02T12:49:08;23.80;;;12.10;;
61785;SDS011;47692;53.714;11.372;2024-03-02T12:51:35;18.65;;;10.10;;
61785;SDS011;47692;53.714;11.372;2024-03-02T12:54:02;20.88;;;10.27;;
61785;SDS011;47692;53.714;11.372;2024-03-02T12:56:28;18.10;;;9.57;;
61785;SDS011;47692;53.714;11.372;2024-03-02T12:58:54;18.75;;;8.55;;
61785;SDS011;47692;53.714;11.372;2024-03-02T13:01:20;20.13;;;9.50;;
61785;SDS011;47692;53.714;11.372;2024-03-02T13:03:47;18.55;;;9.23;;
61785;SDS011;47692;53.714;11.372;2024-03-02T13:06:14;19.63;;;8.73;;
61785;SDS011;47692;53.714;11.372;2024-03-02T13:08:40;19.70;;;9.63;;
61785;SDS011;47692;53.714;11.372;2024-03-02T13:11:06;19.63;;;10.18;;
61785;SDS011;47692;53.714;11.372;2024-03-02T13:13:32;16.02;;;8.60;;
61785;SDS011;47692;53.714;11.372;2024-03-02T13:15:57;18.23;;;8.90;;
61785;SDS011;47692;53.714;11.372;2024-03-02T13:18:23;22.20;;;9.75;;
61785;SDS011;47692;53.714;11.372;2024-03-02T13:20:48;16.17;;;8.63;;
61785;SDS011;47692;53.714;11.372;2024-03-02T13:23:14;16.95;;;7.82;;
61785;SDS011;47692;53.714;11.372;2024-03-02T13:25:39;16.50;;;8.57;;
61785;SDS011;47692;53.714;11.372;2024-03-02T13:28:05;14.52;;;8.20;;
61785;SDS011;47692;53.714;11.372;2024-03-02T13:30:31;15.98;;;8.32;;
61785;SDS011;47692;53.714;11.372;2024-03-02T13:32:56;14.35;;;7.53;;
61785;SDS011;47692;53.714;11.372;2024-03-02T13:35:22;16.98;;;8.05;;
61785;SDS011;47692;53.714;11.372;2024-03-02T13:37:47;15.60;;;7.80;;
61785;SDS011;47692;53.714;11.372;2024-03-02T13:40:12;16.67;;;7.40;;
61785;SDS011;47692;53.714;11.372;2024-03-02T13:42:42;15.57;;;7.90;;
61785;SDS011;47692;53.714;11.372;2024-03-02T13:45:08;17.63;;;8.20;;
61785;SDS011;47692;53.714;11.372;2024-03-02T13:47:33;16.20;;;7.72;;
61785;SDS011;47692;53.714;11.372;2024-03-02T13:49:58;15.75;;;7.45;;
61785;SDS011;47692;53.714;11.372;2024-03-02T13:52:24;15.25;;;7.40;;
61785;SDS011;47692;53.714;11.372;2024-03-02T13:54:50;16.52;;;7.82;;
61785;SDS011;47692;53.714;11.372;2024-03-02T13:57:17;18.02;;;10.10;;
61785;SDS011;47692;53.714;11.372;2024-03-02T13:59:45;12.30;;;6.85;;
61785;SDS011;47692;53.714;11.372;2024-03-02T14:02:11;15.93;;;7.93;;
61785;SDS011;47692;53.714;11.372;2024-03-02T14:04:37;14.15;;;8.43;;
61785;SDS011;47692;53.714;11.372;2024-03-02T14:07:02;18.27;;;9.32;;
61785;SDS011;47692;53.714;11.372;2024-03-02T14:09:28;16.80;;;8.77;;
61785;SDS011;47692;53.714;11.372;2024-03-02T14:11:54;20.13;;;9.63;;
61785;SDS011;47692;53.714;11.372;2024-03-02T14:14:25;22.20;;;10.03;;
61785;SDS011;47692;53.714;11.372;2024-03-02T14:16:50;19.27;;;9.70;;
61785;SDS011;47692;53.714;11.372;2024-03-02T14:19:17;18.95;;;10.30;;
61785;SDS011;47692;53.714;11.372;2024-03-02T14:21:42;18.42;;;9.88;;
61785;SDS011;47692;53.714;11.372;2024-03-02T14:24:07;19.88;;;9.45;;